Time;durP1;ratioP1;P1;durP2;ratioP2;P2;SDS_P1;SDS_P2;PMS_P1;PMS_P2;Temp;Humidity;BMP_temperature;BMP_pressure;BME280_temperature;BME280_humidity;BME280_pressure;Samples;Min_cycle;Max_cycle;Signal;HPM_P1;HPM_P2
2023/04/08 00:02:29;;;;;;;12.50;11.40;;;8.00;99.90;;;8.90;100.00;98125.00;5244811;28;20608;-63
2023/04/08 00:05:02;;;;;;;12.53;11.37;;;8.00;99.90;;;8.93;100.00;98129.44;5239385;28;20224;-63
2023/04/08 00:07:36;;;;;;;12.60;11.60;;;8.00;99.90;;;8.94;100.00;98126.97;5244135;28;20258;-63
2023/04/08 00:10:10;;;;;;;14.10;12.90;;;8.10;99.90;;;8.94;100.00;98131.19;5247402;28;20211;-64
2023/04/08 00:12:44;;;;;;;12.70;11.60;;;8.10;99.90;;;8.94;100.00;98129.53;5239286;28;20672;-64
2023/04/08 00:15:17;;;;;;;13.63;12.43;;;8.10;99.90;;;8.95;100.00;98126.19;5236633;28;20225;-64
2023/04/08 00:17:50;;;;;;;12.23;11.13;;;8.10;99.90;;;8.96;100.00;98132.19;5241277;28;20582;-64
2023/04/08 00:20:24;;;;;;;14.50;13.20;;;8.10;99.90;;;8.99;100.00;98130.72;5241919;28;20201;-65
2023/04/08 00:22:57;;;;;;;12.97;11.87;;;8.10;99.90;;;9.02;100.00;98130.94;5243064;28;20249;-64
2023/04/08 00:25:32;;;;;;;12.90;11.80;;;8.10;99.90;;;9.01;100.00;98139.38;5238198;28;20308;-63
2023/04/08 00:28:05;;;;;;;13.90;12.70;;;8.10;99.90;;;9.01;100.00;98133.34;5240531;28;20223;-65
2023/04/08 00:30:38;;;;;;;14.17;12.87;;;8.10;99.90;;;9.02;100.00;98138.56;5242528;28;20204;-65
2023/04/08 00:33:11;;;;;;;14.30;13.00;;;8.10;99.90;;;9.03;100.00;98142.88;5242753;28;20243;-64
2023/04/08 00:35:45;;;;;;;13.70;12.40;;;8.10;99.90;;;9.05;100.00;98135.34;5244737;28;20217;-64
2023/04/08 00:38:18;;;;;;;14.43;13.13;;;8.10;99.90;;;9.09;100.00;98132.22;5240231;28;20287;-64
2023/04/08 00:40:52;;;;;;;15.00;13.50;;;8.20;99.90;;;9.06;100.00;98141.34;5240414;28;20299;-64
2023/04/08 00:43:25;;;;;;;14.53;13.23;;;8.10;99.90;;;9.10;100.00;98130.53;5239690;28;20219;-64
2023/04/08 00:45:58;;;;;;;13.27;12.17;;;8.20;99.90;;;9.08;100.00;98132.13;5245441;28;20223;-65
2023/04/08 00:48:32;;;;;;;14.13;12.83;;;8.20;99.90;;;9.06;100.00;98133.69;5240712;28;20582;-64
2023/04/08 00:51:06;;;;;;;14.70;13.40;;;8.20;99.90;;;9.11;100.00;98134.88;5234592;28;20479;-64
2023/04/08 00:53:39;;;;;;;15.37;13.97;;;8.20;99.90;;;9.13;100.00;98136.75;5245812;28;20282;-64
2023/04/08 00:56:13;;;;;;;15.07;13.67;;;8.20;99.90;;;9.10;100.00;98143.28;5244867;28;20305;-65
2023/04/08 00:58:46;;;;;;;15.00;13.60;;;8.10;99.90;;;9.07;100.00;98143.09;5233886;28;20192;-64
2023/04/08 01:01:31;;;;;;;15.30;13.97;;;8.10;99.90;;;9.03;100.00;98142.88;5238192;28;20208;-65
2023/04/08 01:04:14;;;;;;;16.47;14.90;;;8.10;99.90;;;9.05;100.00;98144.66;5243642;28;20197;-65
2023/04/08 01:06:57;;;;;;;15.40;14.00;;;8.20;99.90;;;9.09;100.00;98142.41;5237587;28;20246;-64
2023/04/08 01:09:35;;;;;;;15.43;14.03;;;8.10;99.90;;;9.12;100.00;98139.19;5240165;28;20580;-65
2023/04/08 01:12:17;;;;;;;15.63;14.23;;;8.20;99.90;;;9.06;100.00;98139.66;5235749;28;20195;-64
2023/04/08 01:14:52;;;;;;;15.93;14.43;;;8.20;99.90;;;9.05;100.00;98139.56;5234823;28;20225;-65
2023/04/08 01:17:25;;;;;;;16.83;15.33;;;8.10;99.90;;;9.07;100.00;98138.91;5239375;28;20211;-65
2023/04/08 01:20:03;;;;;;;17.10;15.50;;;8.10;99.90;;;9.02;100.00;98141.13;5237492;28;20258;-65
2023/04/08 01:22:53;;;;;;;16.50;14.90;;;8.10;99.90;;;9.04;100.00;98138.66;5242280;28;20310;-67
2023/04/08 01:25:33;;;;;;;17.37;15.73;;;8.10;99.90;;;9.01;100.00;98144.47;5233763;28;20290;-64
2023/04/08 01:28:11;;;;;;;18.30;16.60;;;8.10;99.90;;;8.98;100.00;98146.78;5238956;28;20201;-64
2023/04/08 01:30:46;;;;;;;17.23;15.63;;;8.10;99.90;;;8.86;100.00;98142.53;5239779;28;20208;-66
2023/04/08 01:33:21;;;;;;;18.57;16.80;;;8.00;99.90;;;8.82;100.00;98146.53;5237166;28;20253;-65
2023/04/08 01:35:55;;;;;;;18.17;16.37;;;8.00;99.90;;;8.75;100.00;98140.13;5244293;28;20715;-63
2023/04/08 01:38:31;;;;;;;18.60;16.90;;;8.00;99.90;;;8.78;100.00;98134.34;5240499;28;20226;-65
2023/04/08 01:41:06;;;;;;;19.83;17.73;;;8.00;99.90;;;8.74;100.00;98133.25;5237270;28;20207;-64
2023/04/08 01:43:43;;;;;;;19.03;17.10;;;8.00;99.90;;;8.70;100.00;98135.47;5240470;28;20226;-64
2023/04/08 01:46:17;;;;;;;20.67;18.47;;;7.90;99.90;;;8.64;100.00;98137.63;5241094;28;20713;-64
2023/04/08 01:48:51;;;;;;;18.07;16.27;;;7.90;99.90;;;8.61;100.00;98137.41;5238624;28;20205;-65
2023/04/08 01:51:25;;;;;;;20.83;18.83;;;7.80;99.90;;;8.56;100.00;98138.00;5236192;28;20577;-64
2023/04/08 01:53:59;;;;;;;20.70;18.60;;;7.80;99.90;;;8.56;100.00;98138.00;5237011;28;20581;-63
2023/04/08 01:56:36;;;;;;;21.67;19.47;;;7.80;99.90;;;8.52;100.00;98142.75;5232918;28;20224;-64
2023/04/08 01:59:17;;;;;;;20.40;18.20;;;7.80;99.90;;;8.49;100.00;98134.91;5236617;28;20200;-64
2023/04/08 02:01:51;;;;;;;21.27;18.97;;;7.80;99.90;;;8.47;100.00;98136.44;5230754;28;20209;-64
2023/04/08 02:04:24;;;;;;;21.80;19.63;;;7.80;99.90;;;8.53;100.00;98139.44;5240079;28;20318;-64
2023/04/08 02:06:58;;;;;;;22.13;19.83;;;7.80;99.90;;;8.52;100.00;98136.00;5237455;28;20611;-64
2023/04/08 02:09:31;;;;;;;22.00;19.70;;;7.80;99.90;;;8.48;100.00;98134.03;5240076;28;20210;-63
2023/04/08 02:12:04;;;;;;;21.30;19.10;;;7.70;99.90;;;8.49;100.00;98135.78;5240537;28;20201;-63
2023/04/08 02:14:39;;;;;;;21.47;19.27;;;7.80;99.90;;;8.50;100.00;98137.56;5239153;28;20221;-64
2023/04/08 02:17:19;;;;;;;21.57;19.37;;;7.70;99.90;;;8.48;100.00;98139.13;5233798;28;20215;-64
2023/04/08 02:20:00;;;;;;;23.07;20.67;;;7.70;99.90;;;8.45;100.00;98138.91;5239193;28;20689;-64
2023/04/08 02:22:48;;;;;;;23.07;20.67;;;7.70;99.90;;;8.43;100.00;98137.91;5239122;28;20254;-63
2023/04/08 02:25:25;;;;;;;22.17;20.07;;;7.70;99.90;;;8.47;100.00;98141.53;5241533;28;20312;-63
2023/04/08 02:28:03;;;;;;;21.10;19.00;;;7.70;99.90;;;8.41;100.00;98136.91;5234322;28;20196;-64
2023/04/08 02:30:39;;;;;;;23.07;19.97;;;7.70;99.90;;;8.42;100.00;98146.34;5244385;28;20200;-65
2023/04/08 02:33:13;;;;;;;21.67;19.47;;;7.70;99.90;;;8.40;100.00;98136.81;5248518;28;20282;-64
2023/04/08 02:35:48;;;;;;;22.43;20.13;;;7.70;99.90;;;8.41;100.00;98144.53;5245404;28;20631;-64
2023/04/08 02:38:22;;;;;;;21.60;19.27;;;7.70;99.90;;;8.41;100.00;98146.22;5238622;28;20660;-65
2023/04/08 02:40:56;;;;;;;22.10;19.90;;;7.70;99.90;;;8.41;100.00;98139.44;5239179;28;20199;-64
2023/04/08 02:43:31;;;;;;;21.63;19.47;;;7.70;99.90;;;8.39;100.00;98138.47;5239908;28;20213;-65
2023/04/08 02:46:06;;;;;;;21.50;19.33;;;7.60;99.90;;;8.43;100.00;98139.56;5242400;28;20695;-64
2023/04/08 02:48:39;;;;;;;21.40;19.33;;;7.70;99.90;;;8.41;100.00;98144.53;5247821;28;20278;-64
2023/04/08 02:51:12;;;;;;;20.27;18.27;;;7.60;99.90;;;8.33;100.00;98149.09;5238735;28;20192;-64
2023/04/08 02:53:45;;;;;;;22.27;19.63;;;7.60;99.90;;;8.31;100.00;98149.75;5242995;28;20668;-64
2023/04/08 02:56:18;;;;;;;22.60;20.30;;;7.60;99.90;;;8.31;100.00;98150.63;5242393;28;20247;-64
2023/04/08 02:58:51;;;;;;;21.17;18.93;;;7.60;99.90;;;8.33;100.00;98153.31;5239746;28;20223;-64
2023/04/08 03:01:26;;;;;;;20.33;18.23;;;7.60;99.90;;;8.31;100.00;98150.63;5245126;28;20204;-65
2023/04/08 03:03:59;;;;;;;20.03;18.03;;;7.60;99.90;;;8.33;100.00;98149.09;5241376;28;20235;-64
2023/04/08 03:06:32;;;;;;;21.90;19.70;;;7.60;99.90;;;8.38;100.00;98144.28;5239858;28;20217;-65
2023/04/08 03:09:05;;;;;;;20.33;18.37;;;7.60;99.90;;;8.32;100.00;98146.41;5241776;28;20203;-64
2023/04/08 03:11:39;;;;;;;20.50;18.40;;;7.50;99.90;;;8.28;100.00;98144.44;5246480;28;20208;-65
2023/04/08 03:14:12;;;;;;;21.10;18.97;;;7.50;99.90;;;8.27;100.00;98147.75;5241049;28;20287;-65
2023/04/08 03:16:46;;;;;;;20.23;18.17;;;7.50;99.90;;;8.28;100.00;98141.91;5236343;28;20205;-65
2023/04/08 03:19:19;;;;;;;20.97;18.57;;;7.50;99.90;;;8.28;100.00;98142.78;5239034;28;20287;-64
2023/04/08 03:21:52;;;;;;;20.40;18.33;;;7.50;99.90;;;8.29;100.00;98142.00;5244824;28;20204;-64
2023/04/08 03:24:25;;;;;;;20.80;18.53;;;7.50;99.90;;;8.26;100.00;98140.91;5241556;28;20312;-64
2023/04/08 03:26:58;;;;;;;19.90;17.90;;;7.50;99.90;;;8.26;100.00;98135.81;5242298;28;20250;-63
2023/04/08 03:29:31;;;;;;;20.93;18.77;;;7.50;99.90;;;8.23;100.00;98139.03;5238961;28;20639;-64
2023/04/08 03:32:06;;;;;;;19.57;17.53;;;7.50;99.90;;;8.24;100.00;98145.00;5238777;28;20675;-64
2023/04/08 03:34:39;;;;;;;22.03;19.67;;;7.50;99.90;;;8.20;100.00;98140.47;5243632;28;20292;-63
2023/04/08 03:37:13;;;;;;;21.60;19.20;;;7.50;99.90;;;8.15;100.00;98142.69;5244867;28;20222;-64
2023/04/08 03:39:46;;;;;;;21.33;19.23;;;7.40;99.90;;;8.15;100.00;98144.34;5241626;28;20200;-65
2023/04/08 03:42:19;;;;;;;20.07;18.07;;;7.40;99.90;;;8.14;100.00;98146.00;5241988;28;20201;-65
2023/04/08 03:44:52;;;;;;;21.30;19.17;;;7.40;99.90;;;8.21;100.00;98142.22;5242690;28;20720;-64
2023/04/08 03:47:26;;;;;;;21.83;19.63;;;7.40;99.90;;;8.22;100.00;98146.56;5239673;28;20654;-64
2023/04/08 03:49:59;;;;;;;21.40;19.20;;;7.40;99.90;;;8.14;100.00;98146.00;5251265;28;20572;-65
2023/04/08 03:52:32;;;;;;;21.13;18.93;;;7.40;99.90;;;7.97;100.00;98141.38;5245156;28;20201;-65
2023/04/08 03:55:06;;;;;;;22.20;19.43;;;7.30;99.90;;;8.01;100.00;98146.81;5244031;28;20756;-64
2023/04/08 03:57:39;;;;;;;23.77;21.27;;;7.30;99.90;;;8.00;100.00;98139.06;5234374;28;20201;-65
2023/04/08 04:00:14;;;;;;;22.27;19.93;;;7.30;99.90;;;8.03;100.00;98145.25;5237604;28;20208;-64
2023/04/08 04:02:48;;;;;;;21.90;19.67;;;7.30;99.90;;;8.06;100.00;98142.91;5242775;28;20242;-64
2023/04/08 04:05:22;;;;;;;23.23;20.83;;;7.40;99.90;;;8.03;100.00;98132.53;5242054;28;20231;-65
2023/04/08 04:07:57;;;;;;;24.63;21.90;;;7.30;99.90;;;8.10;100.00;98144.03;5238088;28;20201;-64
2023/04/08 04:10:30;;;;;;;23.87;20.80;;;7.30;99.90;;;8.09;100.00;98139.72;5232306;28;20196;-65
2023/04/08 04:13:03;;;;;;;24.77;22.13;;;7.30;99.90;;;8.02;100.00;98146.03;5243924;28;20658;-64
2023/04/08 04:15:38;;;;;;;23.47;20.97;;;7.30;99.90;;;7.98;100.00;98146.56;5244807;28;20239;-65
2023/04/08 04:18:13;;;;;;;26.17;22.27;;;7.30;99.90;;;7.97;100.00;98156.66;5243539;28;20203;-64
2023/04/08 04:20:46;;;;;;;27.03;24.13;;;7.20;99.90;;;7.97;100.00;98147.34;5240068;28;20290;-65
2023/04/08 04:23:20;;;;;;;26.60;23.33;;;7.20;99.90;;;8.00;100.00;98152.66;5240363;28;20207;-66
2023/04/08 04:25:53;;;;;;;29.40;25.37;;;7.20;99.90;;;8.06;100.00;98149.66;5235830;28;20304;-64
2023/04/08 04:28:26;;;;;;;27.40;23.87;;;7.30;99.90;;;8.01;100.00;98159.53;5243249;28;20196;-63
2023/04/08 04:30:59;;;;;;;26.83;23.00;;;7.30;99.90;;;7.99;100.00;98166.19;5232863;28;20205;-66
2023/04/08 04:33:33;;;;;;;27.83;23.50;;;7.30;99.90;;;7.99;100.00;98173.81;5236153;28;20201;-63
2023/04/08 04:36:06;;;;;;;31.33;24.47;;;7.30;99.90;;;8.01;100.00;98169.72;5247182;28;20242;-64
2023/04/08 04:38:40;;;;;;;28.40;24.23;;;7.30;99.90;;;8.02;100.00;98171.50;5239253;28;20200;-64
2023/04/08 04:41:13;;;;;;;29.73;24.20;;;7.30;99.90;;;8.01;100.00;98179.91;5239948;28;20239;-65
2023/04/08 04:43:46;;;;;;;26.53;23.47;;;7.30;99.90;;;8.04;100.00;98187.75;5236473;28;20607;-64
2023/04/08 04:46:19;;;;;;;30.27;24.53;;;7.30;99.90;;;8.06;100.00;98182.75;5236129;28;20251;-63
2023/04/08 04:48:53;;;;;;;25.17;22.47;;;7.30;99.90;;;8.08;100.00;98192.28;5239682;28;20597;-65
2023/04/08 04:51:27;;;;;;;30.07;24.23;;;7.30;99.90;;;8.07;100.00;98195.63;5240800;28;20200;-64
2023/04/08 04:54:00;;;;;;;27.33;23.77;;;7.20;99.90;;;8.03;100.00;98191.06;5234184;28;20193;-66
2023/04/08 04:56:33;;;;;;;25.20;21.57;;;7.30;99.90;;;8.03;100.00;98192.72;5239526;28;20228;-66
2023/04/08 04:59:07;;;;;;;25.47;22.63;;;7.30;99.90;;;8.04;100.00;98200.50;5240543;28;20211;-64
2023/04/08 05:01:40;;;;;;;26.87;22.43;;;7.30;99.90;;;8.07;100.00;98197.28;5235912;28;20210;-64
2023/04/08 05:04:15;;;;;;;27.13;23.67;;;7.30;99.90;;;8.08;100.00;98199.03;5240589;28;20274;-65
2023/04/08 05:06:48;;;;;;;26.40;23.63;;;7.30;99.90;;;8.15;100.00;98198.69;5237528;28;20197;-64
2023/04/08 05:09:21;;;;;;;26.90;23.00;;;7.30;99.90;;;8.11;100.00;98197.59;5235627;28;20204;-65
2023/04/08 05:11:55;;;;;;;26.10;22.53;;;7.30;99.90;;;8.11;100.00;98202.69;5239251;28;20291;-65
2023/04/08 05:14:29;;;;;;;26.07;22.70;;;7.30;99.90;;;8.13;100.00;98203.69;5239702;28;20266;-64
2023/04/08 05:17:04;;;;;;;25.23;22.23;;;7.30;99.90;;;8.14;100.00;98202.03;5238114;28;20219;-64
2023/04/08 05:19:38;;;;;;;26.47;22.63;;;7.30;99.90;;;8.12;100.00;98209.53;5243560;28;20291;-64
2023/04/08 05:22:11;;;;;;;26.47;23.27;;;7.30;99.90;;;8.09;100.00;98209.31;5237107;28;20652;-64
2023/04/08 05:24:44;;;;;;;26.33;23.30;;;7.30;99.90;;;8.10;100.00;98211.13;5236524;28;20259;-64
2023/04/08 05:27:18;;;;;;;26.23;23.37;;;7.30;99.90;;;8.13;100.00;98207.91;5237210;28;20205;-64
2023/04/08 05:29:51;;;;;;;26.23;21.53;;;7.40;99.90;;;8.11;100.00;98217.97;5241468;28;20215;-64
2023/04/08 05:32:24;;;;;;;25.70;22.90;;;7.30;99.90;;;8.10;100.00;98211.13;5236141;28;20292;-64
2023/04/08 05:34:58;;;;;;;27.13;24.23;;;7.30;99.90;;;8.16;100.00;98215.75;5238630;28;20220;-64
2023/04/08 05:37:31;;;;;;;24.87;22.03;;;7.30;99.90;;;8.16;100.00;98215.75;5245031;28;20202;-64
2023/04/08 05:40:06;;;;;;;26.20;23.40;;;7.40;99.90;;;8.15;100.00;98213.09;5233073;28;20293;-63
2023/04/08 05:42:41;;;;;;;25.57;22.90;;;7.40;99.90;;;8.16;100.00;98220.84;5241768;28;20588;-64
2023/04/08 05:45:14;;;;;;;26.77;23.07;;;7.40;99.90;;;8.21;100.00;98218.63;5238637;28;20589;-64
2023/04/08 05:47:48;;;;;;;23.83;20.90;;;7.40;99.90;;;8.26;100.00;98227.47;5242284;28;20208;-64
2023/04/08 05:50:22;;;;;;;26.27;23.53;;;7.40;99.90;;;8.23;100.00;98219.63;5240558;28;20236;-64
2023/04/08 05:52:55;;;;;;;26.37;23.47;;;7.40;99.90;;;8.28;100.00;98226.81;5235781;28;20200;-65
2023/04/08 05:55:28;;;;;;;25.30;22.67;;;7.40;99.90;;;8.26;100.00;98228.34;5239296;28;20671;-63
2023/04/08 05:58:01;;;;;;;25.77;22.60;;;7.40;99.90;;;8.27;100.00;98227.59;5236944;28;20288;-64
2023/04/08 06:00:35;;;;;;;23.33;20.93;;;7.40;99.90;;;8.19;100.00;98232.91;5239015;28;20304;-64
2023/04/08 06:03:08;;;;;;;24.13;21.53;;;7.40;99.90;;;8.15;100.00;98243.63;5234766;28;20706;-64
2023/04/08 06:05:42;;;;;;;22.40;20.20;;;7.40;99.90;;;8.17;100.00;98242.09;5239890;28;20228;-63
2023/04/08 06:08:15;;;;;;;24.67;21.80;;;7.40;99.90;;;8.22;100.00;98245.88;5240622;28;20196;-64
2023/04/08 06:10:50;;;;;;;24.90;22.30;;;7.40;99.90;;;8.25;100.00;98246.09;5241788;28;20303;-65
2023/04/08 06:13:24;;;;;;;25.57;22.87;;;7.50;99.90;;;8.36;100.00;98250.28;5241261;28;20215;-64
2023/04/08 06:15:57;;;;;;;24.60;21.43;;;7.50;99.90;;;8.38;100.00;98243.63;5240809;28;20222;-64
2023/04/08 06:18:30;;;;;;;24.50;21.80;;;7.50;99.90;;;8.37;100.00;98253.72;5245561;28;20295;-63
2023/04/08 06:21:05;;;;;;;25.60;23.00;;;7.50;99.90;;;8.43;100.00;98252.53;5248079;28;20644;-64
2023/04/08 06:23:38;;;;;;;26.33;22.33;;;7.50;99.90;;;8.43;100.00;98247.44;5242381;28;20622;-64
2023/04/08 06:26:12;;;;;;;27.33;23.10;;;7.60;99.90;;;8.51;100.00;98256.50;5248365;28;20617;-64
2023/04/08 06:28:45;;;;;;;24.87;21.60;;;7.60;99.90;;;8.60;100.00;98245.22;5237153;28;20232;-65
2023/04/08 06:31:18;;;;;;;24.50;21.87;;;7.70;99.90;;;8.61;100.00;98246.97;5234566;28;20230;-64
2023/04/08 06:33:52;;;;;;;25.63;22.67;;;7.70;99.90;;;8.71;100.00;98251.94;5233220;28;20207;-65
2023/04/08 06:36:27;;;;;;;24.77;22.17;;;7.70;99.90;;;8.74;100.00;98254.72;5236305;28;20212;-65
2023/04/08 06:39:00;;;;;;;26.10;23.23;;;7.80;99.90;;;8.67;100.00;98255.94;5245526;28;20248;-64
2023/04/08 06:41:33;;;;;;;24.33;21.73;;;7.80;99.90;;;8.81;100.00;98256.91;5237815;28;20678;-65
2023/04/08 06:44:06;;;;;;;23.10;20.70;;;7.80;99.90;;;8.80;100.00;98255.13;5236106;28;20216;-64
2023/04/08 06:46:39;;;;;;;24.13;21.53;;;7.90;99.90;;;8.92;100.00;98257.66;5241777;28;20311;-64
2023/04/08 06:49:13;;;;;;;23.40;20.90;;;7.90;99.90;;;8.89;100.00;98265.97;5239980;28;20205;-65
2023/04/08 06:51:47;;;;;;;27.53;22.33;;;8.00;99.90;;;8.88;100.00;98264.22;5233785;28;20691;-64
2023/04/08 06:54:20;;;;;;;23.60;20.07;;;8.00;99.90;;;8.92;100.00;98261.06;5246910;28;20580;-66
2023/04/08 06:56:53;;;;;;;22.90;20.50;;;8.00;99.90;;;8.97;100.00;98257.19;5236954;28;20200;-63
2023/04/08 06:59:26;;;;;;;22.13;19.83;;;8.00;99.90;;;8.98;100.00;98258.94;5232850;28;20207;-62
2023/04/08 07:01:59;;;;;;;22.93;20.53;;;8.00;99.90;;;8.97;100.00;98264.84;5236909;28;20197;-63
2023/04/08 07:04:33;;;;;;;21.73;19.43;;;8.00;99.90;;;8.95;100.00;98260.41;5240166;28;20387;-66
2023/04/08 07:07:08;;;;;;;21.57;19.27;;;8.00;99.90;;;8.95;100.00;98261.28;5235453;28;20207;-64
2023/04/08 07:09:44;;;;;;;20.97;18.77;;;8.00;99.90;;;8.96;100.00;98265.63;5245136;28;20258;-66
2023/04/08 07:12:17;;;;;;;21.83;19.53;;;8.00;99.90;;;8.98;100.00;98258.06;5239440;28;20236;-66
2023/04/08 07:14:50;;;;;;;20.67;18.47;;;8.00;99.90;;;9.03;100.00;98266.94;5239460;28;20572;-66
2023/04/08 07:17:24;;;;;;;20.73;18.50;;;8.00;99.90;;;9.05;100.00;98267.06;5239776;28;20200;-66
2023/04/08 07:19:57;;;;;;;21.33;19.03;;;8.10;99.90;;;9.09;100.00;98269.03;5241611;28;20207;-66
2023/04/08 07:22:31;;;;;;;19.77;17.73;;;8.10;99.90;;;8.98;100.00;98276.78;5247029;28;20287;-67
2023/04/08 07:25:05;;;;;;;22.00;19.80;;;8.10;99.90;;;8.96;100.00;98270.72;5246975;28;20231;-66
2023/04/08 07:27:38;;;;;;;20.77;18.57;;;8.10;99.90;;;9.10;100.00;98275.88;5242147;28;20201;-66
2023/04/08 07:30:12;;;;;;;21.70;19.50;;;8.10;99.90;;;9.20;100.00;98270.66;5241077;28;20193;-65
2023/04/08 07:32:45;;;;;;;20.67;18.57;;;8.20;99.90;;;9.26;100.00;98268.50;5241239;28;20288;-66
2023/04/08 07:35:23;;;;;;;20.33;18.27;;;8.20;99.90;;;9.21;100.00;98282.59;5236324;28;20643;-66
2023/04/08 07:37:57;;;;;;;20.70;18.60;;;8.20;99.90;;;9.28;100.00;98279.72;5240481;28;20737;-65
2023/04/08 07:40:31;;;;;;;21.67;19.47;;;8.30;99.90;;;9.41;100.00;98283.97;5235128;28;20199;-66
2023/04/08 07:43:04;;;;;;;21.73;19.50;;;8.30;99.90;;;9.52;100.00;98289.81;5242368;28;20551;-65
2023/04/08 07:45:37;;;;;;;20.00;18.10;;;8.50;99.90;;;9.65;100.00;98297.53;5236375;28;20236;-65
2023/04/08 07:48:10;;;;;;;20.43;17.53;;;8.60;99.90;;;9.75;100.00;98299.03;5238793;28;20222;-64
2023/04/08 07:50:44;;;;;;;20.33;17.67;;;8.70;99.90;;;9.84;100.00;98303.09;5239897;28;20223;-65
2023/04/08 07:53:40;;;;;;;19.17;17.27;;;8.90;99.90;;;9.95;100.00;98296.13;5238616;28;20676;-65
2023/04/08 07:56:14;;;;;;;30.20;19.15;;;8.90;99.90;;;10.12;100.00;98292.13;5242192;28;20227;-66
2023/04/08 07:58:49;;;;;;;19.63;17.63;;;9.00;99.90;;;10.21;100.00;98292.75;5240241;28;20573;-66
2023/04/08 08:01:28;;;;;;;18.87;16.87;;;9.10;99.90;;;10.30;100.00;98290.84;5242862;28;20668;-66
2023/04/08 08:04:02;;;;;;;18.70;16.73;;;9.30;99.90;;;10.57;100.00;98289.16;5243877;28;20212;-65
2023/04/08 08:06:35;;;;;;;18.27;16.48;;;9.60;99.90;;;10.72;98.09;98289.25;5254601;28;20216;-64
2023/04/08 08:09:09;;;;;;;18.20;16.40;;;9.80;99.90;;;10.78;100.00;98298.97;5245518;28;20580;-66
2023/04/08 08:11:42;;;;;;;19.35;17.55;;;9.80;99.90;;;10.89;97.60;98299.66;5244735;28;20207;-66
2023/04/08 08:14:16;;;;;;;18.27;16.38;;;9.90;99.90;;;10.97;95.05;98299.34;5262743;28;20648;-65
2023/04/08 08:16:49;;;;;;;18.45;16.63;;;9.90;99.90;;;11.17;92.90;98295.47;5245586;28;20291;-66
2023/04/08 08:19:22;;;;;;;18.58;16.77;;;10.10;99.90;;;11.01;91.88;98301.28;5243921;28;20216;-66
2023/04/08 08:21:55;;;;;;;18.17;16.25;;;10.00;99.90;;;11.04;91.87;98308.28;5246246;28;20215;-66
2023/04/08 08:24:30;;;;;;;18.05;16.13;;;10.00;99.90;;;11.08;92.83;98305.13;5245758;28;20766;-65
2023/04/08 08:27:05;;;;;;;19.20;17.15;;;10.00;99.90;;;11.21;90.92;98299.09;5254471;28;20400;-66
2023/04/08 08:29:38;;;;;;;16.42;14.90;;;10.00;99.90;;;11.19;88.22;98295.59;5244612;28;20209;-66
2023/04/08 08:32:11;;;;;;;17.23;15.60;;;10.10;99.90;;;11.00;89.67;98303.78;5241906;28;20200;-65
2023/04/08 08:34:44;;;;;;;17.40;15.80;;;9.90;99.90;;;11.12;90.08;98304.53;5244603;28;20595;-66
2023/04/08 08:37:17;;;;;;;16.10;14.70;;;9.90;99.90;;;11.05;91.15;98304.94;5245101;28;20649;-66
2023/04/08 08:39:51;;;;;;;16.90;15.30;;;9.90;99.90;;;11.23;89.12;98305.19;5241118;28;20203;-66
2023/04/08 08:42:26;;;;;;;17.10;15.48;;;10.20;99.90;;;11.24;87.36;98300.16;5243359;28;20647;-66
2023/04/08 08:45:03;;;;;;;17.90;16.30;;;10.30;99.90;;;11.19;88.10;98314.38;5234597;28;20642;-65
2023/04/08 08:47:36;;;;;;;17.40;15.80;;;10.20;99.90;;;11.22;88.80;98317.13;5241238;28;20667;-65
2023/04/08 08:50:10;;;;;;;17.23;15.63;;;10.10;99.90;;;11.20;85.66;98322.91;5243633;28;20444;-65
2023/04/08 08:52:49;;;;;;;16.73;15.15;;;10.00;99.90;;;11.26;86.05;98324.19;5244893;28;20208;-66
2023/04/08 08:55:23;;;;;;;16.52;15.00;;;10.20;99.90;;;11.30;86.41;98321.81;5244720;28;20224;-67
2023/04/08 08:58:00;;;;;;;16.75;15.25;;;10.10;99.90;;;11.44;86.68;98323.53;5265776;28;20594;-66
2023/04/08 09:00:35;;;;;;;17.33;15.52;;;10.10;99.90;;;11.41;85.67;98325.91;5240178;28;20215;-66
2023/04/08 09:03:16;;;;;;;18.05;16.45;;;10.20;99.90;;;11.43;82.83;98322.66;5247684;28;20199;-67
2023/04/08 09:05:52;;;;;;;17.60;16.10;;;10.30;99.90;;;11.29;75.61;98328.59;5247044;28;20228;-66
2023/04/08 09:08:27;;;;;;;16.58;15.07;;;10.20;99.90;;;11.43;72.63;98319.22;5245891;28;20231;-66
2023/04/08 09:11:17;;;;;;;16.08;14.68;;;10.30;99.90;;;11.57;79.18;98328.63;5241901;28;20196;-66
2023/04/08 09:13:50;;;;;;;16.02;14.55;;;10.40;99.90;;;11.62;75.56;98324.66;5231743;28;20224;-71
2023/04/08 09:16:24;;;;;;;16.70;15.25;;;10.60;99.90;;;11.81;73.26;98334.31;5233659;28;20270;-67
2023/04/08 09:19:10;;;;;;;16.42;14.85;;;10.80;99.90;;;12.21;70.55;98336.69;5240973;28;20197;-67
2023/04/08 09:21:43;;;;;;;15.63;14.13;;;11.00;99.90;;;12.25;72.04;98324.97;5229293;28;20719;-64
2023/04/08 09:24:30;;;;;;;16.00;14.60;;;11.20;99.90;;;12.33;66.68;98323.72;5232461;28;20221;-67
2023/04/08 09:27:06;;;;;;;15.82;14.45;;;11.20;99.90;;;12.47;67.65;98327.94;5239343;28;20238;-69
2023/04/08 09:29:39;;;;;;;15.02;13.57;;;11.50;99.90;;;12.84;67.37;98324.91;5236330;28;20196;-69
2023/04/08 09:32:12;;;;;;;15.10;13.70;;;11.90;99.90;;;13.07;65.87;98327.03;5233537;28;20197;-67
2023/04/08 09:34:46;;;;;;;14.60;13.32;;;12.00;99.90;;;13.10;61.09;98322.88;5236082;28;20220;-67
2023/04/08 09:37:19;;;;;;;15.10;13.80;;;12.10;99.90;;;13.08;62.38;98321.13;5234935;28;20219;-68
2023/04/08 09:39:52;;;;;;;13.88;12.75;;;12.10;99.90;;;13.17;60.70;98312.16;5241475;28;20204;-68
2023/04/08 09:42:27;;;;;;;14.82;13.52;;;11.90;99.90;;;12.68;56.23;98337.69;5236865;28;20210;-68
2023/04/08 09:45:05;;;;;;;14.10;12.80;;;11.70;99.90;;;12.49;57.67;98331.50;5235140;28;20723;-67
2023/04/08 09:47:52;;;;;;;13.77;12.57;;;11.40;99.90;;;12.56;60.90;98328.50;5244372;28;20216;-65
2023/04/08 09:50:31;;;;;;;14.90;13.68;;;11.40;99.90;;;12.47;61.11;98327.06;5238355;28;20557;-67
2023/04/08 09:53:14;;;;;;;14.68;13.48;;;11.20;99.90;;;12.45;61.73;98324.44;5238995;28;20707;-67
2023/04/08 09:55:51;;;;;;;15.55;14.05;;;11.20;99.90;;;12.28;61.66;98328.59;5233056;28;20412;-66
2023/04/08 09:58:29;;;;;;;14.57;13.18;;;11.10;99.90;;;12.40;62.54;98325.84;5233681;28;20279;-67
2023/04/08 10:01:02;;;;;;;13.77;12.68;;;11.10;99.90;;;12.32;59.84;98327.97;5232859;28;20211;-66
2023/04/08 10:03:42;;;;;;;14.55;13.25;;;11.10;99.90;;;12.08;57.09;98319.75;5231330;28;20204;-65
2023/04/08 10:06:16;;;;;;;14.05;12.75;;;10.90;99.90;;;12.03;61.58;98322.81;5234609;28;20227;-67
2023/04/08 10:08:50;;;;;;;13.65;12.45;;;10.80;99.90;;;12.01;60.06;98325.28;5237500;28;20598;-66
2023/04/08 10:11:23;;;;;;;15.70;14.20;;;10.80;99.90;;;11.88;61.44;98323.69;5236441;28;20204;-67
2023/04/08 10:13:58;;;;;;;13.90;12.70;;;10.80;99.90;;;11.97;64.14;98322.47;5237679;28;20197;-66
2023/04/08 10:16:31;;;;;;;14.63;13.32;;;10.80;99.90;;;11.87;60.48;98326.16;5236986;28;20576;-66
2023/04/08 10:19:38;;;;;;;14.70;13.30;;;10.80;99.90;;;11.70;60.27;98320.91;5241652;28;20201;-65
2023/04/08 10:22:48;;;;;;;14.57;13.18;;;10.70;99.90;;;11.87;62.75;98329.59;5236076;28;20205;-66
2023/04/08 10:25:34;;;;;;;15.35;13.90;;;10.70;99.90;;;11.68;60.82;98322.47;5231398;28;20223;-66
2023/04/08 10:28:25;;;;;;;13.93;12.63;;;10.70;99.90;;;11.64;60.71;98325.63;5234117;28;20595;-67
2023/04/08 10:30:59;;;;;;;13.60;12.40;;;10.60;99.90;;;11.59;58.98;98319.38;5237185;28;20657;-66
2023/04/08 10:33:34;;;;;;;13.13;12.05;;;10.60;99.90;;;11.81;62.46;98326.63;5239930;28;20210;-67
2023/04/08 10:36:14;;;;;;;13.60;12.40;;;10.70;99.90;;;11.82;61.21;98330.09;5245449;28;20860;-66
2023/04/08 10:38:47;;;;;;;13.73;12.52;;;10.70;99.90;;;11.95;61.90;98330.06;5239047;28;20211;-67
2023/04/08 10:41:24;;;;;;;13.60;12.45;;;10.80;99.90;;;11.93;60.31;98331.63;5238547;28;20208;-66
2023/04/08 10:43:57;;;;;;;13.43;12.30;;;10.80;99.90;;;11.97;59.81;98327.59;5234800;28;20200;-66